createdAt,value
2022-12-29T00:00:13.543Z,75.71
2022-12-29T00:02:42.085Z,74.81
2022-12-29T00:05:09.858Z,77.05
2022-12-29T00:07:37.135Z,77.48
2022-12-29T00:10:05.287Z,79.07
2022-12-29T00:12:52.591Z,78.78
2022-12-29T00:15:38.176Z,80.92
2022-12-29T00:18:06.453Z,82.24
2022-12-29T00:20:57.321Z,81.91
2022-12-29T00:23:43.867Z,80.57
2022-12-29T00:26:35.972Z,84.16
2022-12-29T00:29:21.890Z,85.79
2022-12-29T00:32:08.041Z,84.36
2022-12-29T00:34:53.824Z,86.36
2022-12-29T00:37:41.354Z,89.12
2022-12-29T00:40:32.289Z,88.06
2022-12-29T00:43:22.633Z,85.94
2022-12-29T00:45:50.005Z,89.79
2022-12-29T00:48:37.208Z,88.91
2022-12-29T00:51:04.839Z,86.10
2022-12-29T00:53:32.100Z,85.86
2022-12-29T00:55:59.722Z,86.41
2022-12-29T00:58:31.320Z,85.81
2022-12-29T01:01:09.835Z,84.39
2022-12-29T01:03:39.088Z,86.17
2022-12-29T01:06:09.055Z,86.00
2022-12-29T01:08:38.635Z,85.28
2022-12-29T01:11:10.500Z,86.10
2022-12-29T01:13:43.537Z,86.66
2022-12-29T01:16:12.249Z,85.45
2022-12-29T01:18:39.482Z,84.97
2022-12-29T01:21:07.923Z,83.74
2022-12-29T01:23:35.356Z,82.54
2022-12-29T01:26:17.612Z,85.04
2022-12-29T01:28:45.988Z,81.76
2022-12-29T01:31:15.615Z,82.77
2022-12-29T01:33:44.111Z,85.11
2022-12-29T01:36:16.378Z,83.65
2022-12-29T01:38:45.189Z,81.88
2022-12-29T01:41:15.312Z,83.76
2022-12-29T01:43:58.647Z,85.36
2022-12-29T01:46:39.890Z,84.54
2022-12-29T01:49:30.373Z,81.67
2022-12-29T01:52:09.044Z,80.01
2022-12-29T01:54:49.036Z,79.68
2022-12-29T01:57:22.749Z,81.90
2022-12-29T02:00:01.408Z,83.06
2022-12-29T02:02:32.628Z,78.96
2022-12-29T02:05:08.532Z,80.16
2022-12-29T02:07:36.402Z,80.35
2022-12-29T02:10:04.665Z,80.07
2022-12-29T02:12:31.980Z,79.01
2022-12-29T02:15:03.092Z,80.08
2022-12-29T02:17:54.252Z,80.08
2022-12-29T02:21:00.200Z,76.83
2022-12-29T02:24:10.278Z,83.02
2022-12-29T02:27:27.909Z,85.29
2022-12-29T02:30:38.158Z,84.48
2022-12-29T02:33:17.106Z,84.74
2022-12-29T02:35:57.132Z,84.83
2022-12-29T02:38:42.138Z,85.13
2022-12-29T02:41:22.664Z,82.46
2022-12-29T02:44:40.595Z,80.92
2022-12-29T02:47:30.866Z,76.94
2022-12-29T02:50:24.412Z,74.69
2022-12-29T02:53:07.818Z,73.13
2022-12-29T02:55:35.788Z,73.88
2022-12-29T02:58:22.718Z,74.99
2022-12-29T03:01:10.388Z,72.59
2022-12-29T03:04:13.331Z,71.17
2022-12-29T03:06:55.646Z,69.18
2022-12-29T03:09:54.493Z,69.38
2022-12-29T03:13:13.690Z,67.83
2022-12-29T03:16:22.459Z,70.30
2022-12-29T03:19:19.229Z,74.29
2022-12-29T03:22:20.438Z,75.81
2022-12-29T03:25:09.289Z,75.40
2022-12-29T03:27:50.834Z,74.62
2022-12-29T03:30:20.254Z,75.62
2022-12-29T03:32:59.671Z,74.48
2022-12-29T03:35:34.231Z,77.50
2022-12-29T03:38:14.826Z,77.81
2022-12-29T03:40:48.651Z,77.90
2022-12-29T03:43:18.246Z,77.63
2022-12-29T03:45:47.057Z,78.21
2022-12-29T03:48:14.526Z,79.84
2022-12-29T03:50:42.540Z,78.05
2022-12-29T03:53:10.082Z,75.52
2022-12-29T03:55:39.622Z,76.30
2022-12-29T03:58:07.049Z,74.94
2022-12-29T04:00:49.246Z,77.19
2022-12-29T04:03:16.778Z,77.82
2022-12-29T04:05:45.787Z,78.10
2022-12-29T04:08:13.184Z,78.23
2022-12-29T04:10:40.910Z,80.14
2022-12-29T04:13:08.250Z,79.78
2022-12-29T04:15:35.713Z,81.74
2022-12-29T04:18:03.251Z,80.10
2022-12-29T04:20:49.239Z,78.52
2022-12-29T04:23:16.847Z,77.60
2022-12-29T04:25:49.535Z,77.44
2022-12-29T04:28:18.174Z,78.74
2022-12-29T04:31:04.465Z,80.19
2022-12-29T04:33:37.135Z,79.95
2022-12-29T04:36:05.106Z,79.26
2022-12-29T04:38:33.103Z,79.96
2022-12-29T04:41:03.903Z,82.40
2022-12-29T04:43:31.592Z,81.36
2022-12-29T04:46:19.235Z,79.16
2022-12-29T04:48:58.005Z,80.92
2022-12-29T04:51:46.304Z,82.74
2022-12-29T04:54:15.303Z,82.22
2022-12-29T04:56:44.892Z,84.59
2022-12-29T04:59:15.009Z,83.77
2022-12-29T05:01:44.313Z,83.21
2022-12-29T05:04:11.688Z,84.05
2022-12-29T05:06:39.137Z,83.88
2022-12-29T05:09:06.905Z,80.98
2022-12-29T05:11:36.161Z,83.68
2022-12-29T05:14:03.700Z,82.34
2022-12-29T05:16:31.211Z,81.81
2022-12-29T05:18:58.763Z,80.96
2022-12-29T05:21:26.118Z,80.91
2022-12-29T05:23:53.415Z,81.24
2022-12-29T05:26:20.822Z,81.47
2022-12-29T05:29:11.336Z,81.64
2022-12-29T05:31:38.963Z,81.63
2022-12-29T05:34:07.256Z,81.37
2022-12-29T05:36:37.958Z,80.74
2022-12-29T05:39:08.681Z,79.86
2022-12-29T05:41:36.807Z,79.72
2022-12-29T05:44:23.586Z,79.62
2022-12-29T05:47:11.199Z,80.09
2022-12-29T05:50:08.422Z,80.24
2022-12-29T05:52:54.427Z,77.39
2022-12-29T05:55:22.185Z,77.35
2022-12-29T05:57:52.075Z,77.42
2022-12-29T06:00:19.740Z,77.62
2022-12-29T06:02:48.231Z,78.43
2022-12-29T06:05:17.599Z,79.18
2022-12-29T06:07:46.425Z,79.54
2022-12-29T06:10:16.333Z,78.22
2022-12-29T06:12:48.222Z,76.29
2022-12-29T06:15:16.333Z,77.19
2022-12-29T06:17:47.015Z,79.21
2022-12-29T06:20:14.499Z,79.17
2022-12-29T06:22:41.919Z,79.41
2022-12-29T06:25:09.952Z,79.99
2022-12-29T06:27:37.535Z,79.52
2022-12-29T06:30:06.270Z,80.07
2022-12-29T06:32:33.692Z,79.53
2022-12-29T06:35:07.071Z,79.36
2022-12-29T06:37:38.250Z,79.79
2022-12-29T06:40:06.473Z,79.23
2022-12-29T06:42:49.789Z,79.46
2022-12-29T06:45:33.790Z,78.37
2022-12-29T06:48:01.407Z,77.63
2022-12-29T06:50:28.908Z,78.15
2022-12-29T06:52:56.209Z,78.44
2022-12-29T06:55:23.636Z,79.90
2022-12-29T06:57:50.997Z,79.05
2022-12-29T07:00:22.781Z,79.27
2022-12-29T07:02:51.449Z,79.85
2022-12-29T07:05:18.752Z,79.99
2022-12-29T07:07:46.095Z,81.33
2022-12-29T07:10:13.343Z,82.10
2022-12-29T07:12:40.683Z,82.26
2022-12-29T07:15:08.901Z,81.45
2022-12-29T07:17:36.254Z,82.54
2022-12-29T07:20:03.966Z,82.20
2022-12-29T07:22:31.379Z,83.61
2022-12-29T07:24:58.856Z,83.42
2022-12-29T07:27:26.258Z,83.10
2022-12-29T07:29:53.605Z,83.20
2022-12-29T07:32:20.909Z,83.64
2022-12-29T07:34:48.560Z,83.48
2022-12-29T07:37:19.562Z,82.01
2022-12-29T07:39:46.864Z,83.33
2022-12-29T07:42:14.136Z,83.81
2022-12-29T07:44:43.962Z,82.87
2022-12-29T07:47:19.418Z,83.13
2022-12-29T07:49:46.667Z,82.04
2022-12-29T07:52:13.999Z,81.46
2022-12-29T07:54:41.267Z,81.12
2022-12-29T07:57:08.692Z,80.50
2022-12-29T07:59:36.153Z,82.80
2022-12-29T08:02:04.042Z,80.95
2022-12-29T08:04:31.498Z,81.22
2022-12-29T08:06:58.746Z,80.12
2022-12-29T08:09:26.015Z,80.46
2022-12-29T08:11:54.515Z,80.80
2022-12-29T08:14:22.006Z,81.54
2022-12-29T08:16:49.311Z,81.88
2022-12-29T08:19:16.565Z,84.17
2022-12-29T08:21:43.962Z,83.50
2022-12-29T08:24:11.506Z,83.97
2022-12-29T08:26:38.989Z,83.79
2022-12-29T08:29:06.363Z,84.27
2022-12-29T08:31:33.650Z,83.05
2022-12-29T08:34:02.553Z,83.61
2022-12-29T08:36:30.904Z,85.41
2022-12-29T08:38:58.326Z,84.53
2022-12-29T08:41:25.588Z,90.21
2022-12-29T08:43:53.463Z,90.86
2022-12-29T08:46:20.827Z,87.96
2022-12-29T08:48:48.129Z,85.43
2022-12-29T08:51:18.219Z,86.10
2022-12-29T08:53:48.796Z,83.96
2022-12-29T08:56:17.236Z,83.43
2022-12-29T08:58:50.285Z,82.58
2022-12-29T09:01:19.587Z,81.08
2022-12-29T09:06:39.885Z,79.21
2022-12-29T09:09:08.119Z,79.12
2022-12-29T09:11:35.563Z,79.47
2022-12-29T09:14:02.884Z,79.77
2022-12-29T09:16:30.266Z,78.18
2022-12-29T09:18:57.634Z,79.03
2022-12-29T09:21:25.018Z,78.04
2022-12-29T09:23:52.525Z,79.44
2022-12-29T09:26:19.903Z,76.59
2022-12-29T09:28:48.219Z,80.34
2022-12-29T09:31:15.807Z,81.10
2022-12-29T09:33:43.126Z,76.99
2022-12-29T09:36:10.597Z,79.90
2022-12-29T09:38:37.799Z,81.06
2022-12-29T09:41:26.019Z,82.65
2022-12-29T09:44:08.416Z,83.26
2022-12-29T09:46:49.021Z,83.08
2022-12-29T09:49:44.398Z,82.33
2022-12-29T09:52:16.165Z,83.66
2022-12-29T09:55:03.221Z,78.38
2022-12-29T09:58:03.122Z,77.49
2022-12-29T10:01:04.736Z,76.91
2022-12-29T10:03:55.816Z,79.70
2022-12-29T10:10:21.389Z,80.80
2022-12-29T10:13:10.545Z,74.78
2022-12-29T10:15:58.832Z,74.78
2022-12-29T10:18:36.584Z,73.09
2022-12-29T10:21:32.693Z,71.86
2022-12-29T10:24:03.023Z,70.20
2022-12-29T10:26:39.868Z,70.60
2022-12-29T10:29:20.024Z,70.32
2022-12-29T10:32:14.693Z,69.83
2022-12-29T10:34:52.663Z,67.20
2022-12-29T10:37:48.867Z,67.02
2022-12-29T10:40:34.102Z,67.11
2022-12-29T10:43:03.576Z,66.33
2022-12-29T10:45:35.073Z,66.09
2022-12-29T10:48:27.139Z,66.73
2022-12-29T10:51:02.676Z,66.68
2022-12-29T10:54:01.539Z,65.00
2022-12-29T10:56:38.470Z,62.93
2022-12-29T10:59:25.243Z,61.64
2022-12-29T11:02:13.208Z,58.34
2022-12-29T11:05:17.705Z,53.73
2022-12-29T11:07:48.033Z,48.35
2022-12-29T11:10:44.480Z,45.32
2022-12-29T11:13:38.639Z,43.19
2022-12-29T11:16:07.064Z,44.76
2022-12-29T11:18:39.342Z,44.76
2022-12-29T11:21:43.020Z,44.05
2022-12-29T11:24:26.079Z,44.30
2022-12-29T11:26:59.712Z,43.45
2022-12-29T11:29:30.297Z,44.49
2022-12-29T11:32:00.255Z,43.58
2022-12-29T11:34:37.316Z,43.71
2022-12-29T11:37:39.548Z,45.31
2022-12-29T11:40:11.581Z,45.96
2022-12-29T11:42:47.944Z,50.10
2022-12-29T11:45:24.533Z,47.05
2022-12-29T11:48:09.084Z,51.98
2022-12-29T11:50:42.982Z,50.84
2022-12-29T11:53:33.261Z,50.40
2022-12-29T11:56:09.380Z,51.79
2022-12-29T11:58:39.657Z,50.04
2022-12-29T12:04:19.728Z,51.71
2022-12-29T12:07:29.790Z,52.80
2022-12-29T12:10:09.831Z,52.52
2022-12-29T12:12:54.919Z,47.32
2022-12-29T12:15:32.765Z,47.17
2022-12-29T12:18:28.926Z,45.37
2022-12-29T12:21:05.810Z,45.19
2022-12-29T12:23:52.834Z,42.81
2022-12-29T12:26:29.725Z,44.27
2022-12-29T12:29:23.666Z,46.18
2022-12-29T12:32:10.650Z,49.72
2022-12-29T12:34:43.972Z,49.40
2022-12-29T12:37:30.932Z,49.21
2022-12-29T12:40:46.241Z,50.57
2022-12-29T12:43:32.582Z,52.93
2022-12-29T12:46:28.947Z,55.48
2022-12-29T12:49:38.580Z,54.88
2022-12-29T12:52:32.984Z,56.17
2022-12-29T12:55:56.218Z,57.53
2022-12-29T12:59:14.069Z,59.39
2022-12-29T13:02:31.143Z,60.79
2022-12-29T13:05:31.582Z,64.52
2022-12-29T13:08:44.833Z,63.63
2022-12-29T13:11:40.982Z,63.51
2022-12-29T13:14:35.395Z,63.71
2022-12-29T13:17:23.342Z,66.25
2022-12-29T13:20:12.883Z,67.70
2022-12-29T13:23:03.442Z,72.64
2022-12-29T13:26:01.489Z,73.78
2022-12-29T13:28:39.956Z,71.94
2022-12-29T13:31:29.825Z,72.89
2022-12-29T13:34:30.813Z,73.63
2022-12-29T13:37:05.246Z,74.94
2022-12-29T13:39:38.947Z,75.77
2022-12-29T13:42:07.749Z,76.80
2022-12-29T13:45:00.510Z,77.04
2022-12-29T13:47:38.795Z,80.26
2022-12-29T13:50:19.413Z,78.11
2022-12-29T13:53:20.306Z,78.69
2022-12-29T13:55:53.247Z,79.54
2022-12-29T13:58:36.067Z,81.13
2022-12-29T14:01:52.175Z,79.92
2022-12-29T14:04:27.264Z,79.98
2022-12-29T14:07:13.889Z,80.61
2022-12-29T14:09:57.603Z,82.24
2022-12-29T14:12:44.875Z,81.60
2022-12-29T14:15:12.093Z,80.81
2022-12-29T14:17:45.642Z,81.17
2022-12-29T14:20:24.324Z,82.92
2022-12-29T14:23:43.440Z,82.47
2022-12-29T14:26:33.413Z,82.49
2022-12-29T14:29:41.543Z,82.75
2022-12-29T14:32:26.996Z,83.88
2022-12-29T14:34:57.182Z,83.90
2022-12-29T14:37:32.917Z,85.56
2022-12-29T14:40:07.821Z,85.05
2022-12-29T14:42:35.330Z,85.30
2022-12-29T14:45:14.461Z,86.76
2022-12-29T14:47:49.580Z,86.85
2022-12-29T14:50:22.054Z,86.24
2022-12-29T14:53:03.662Z,85.99
2022-12-29T14:55:55.260Z,85.51
2022-12-29T14:58:35.720Z,86.65
2022-12-29T15:01:03.563Z,91.51
2022-12-29T15:03:37.439Z,90.91
2022-12-29T15:06:12.579Z,92.31
2022-12-29T15:09:11.889Z,95.42
2022-12-29T15:11:48.565Z,94.19
2022-12-29T15:14:52.575Z,92.35
2022-12-29T15:17:35.425Z,93.77
2022-12-29T15:20:23.370Z,96.16
2022-12-29T15:23:10.611Z,94.27
2022-12-29T15:25:38.080Z,95.37
2022-12-29T15:28:07.785Z,95.33
2022-12-29T15:30:36.027Z,96.03
2022-12-29T15:33:04.005Z,94.83
2022-12-29T15:35:36.559Z,93.21
2022-12-29T15:38:32.178Z,94.93
2022-12-29T15:41:15.312Z,92.16
2022-12-29T15:44:00.102Z,92.22
2022-12-29T15:46:31.271Z,92.06
2022-12-29T15:48:59.256Z,91.70
2022-12-29T15:51:38.470Z,90.79
2022-12-29T15:54:06.096Z,91.46
2022-12-29T15:56:34.332Z,90.26
2022-12-29T15:59:02.915Z,90.10
2022-12-29T16:01:37.791Z,90.63
2022-12-29T16:04:10.073Z,90.09
2022-12-29T16:06:54.956Z,89.99
2022-12-29T16:09:45.548Z,89.69
2022-12-29T16:12:35.295Z,89.47
2022-12-29T16:15:13.557Z,90.48
2022-12-29T16:17:54.501Z,88.30
2022-12-29T16:20:29.934Z,88.46
2022-12-29T16:23:00.709Z,92.54
2022-12-29T16:25:38.376Z,90.29
2022-12-29T16:28:24.345Z,92.55
2022-12-29T16:31:06.972Z,89.65
2022-12-29T16:33:55.863Z,91.96
2022-12-29T16:36:30.913Z,91.72
2022-12-29T16:39:24.968Z,92.89
2022-12-29T16:41:53.490Z,92.48
2022-12-29T16:44:25.675Z,91.02
2022-12-29T16:47:08.422Z,90.57
2022-12-29T16:49:38.753Z,89.94
2022-12-29T16:52:35.690Z,89.33
2022-12-29T16:55:03.634Z,88.65
2022-12-29T16:57:37.452Z,87.99
2022-12-29T17:00:08.828Z,88.41
2022-12-29T17:02:46.081Z,92.59
2022-12-29T17:05:19.139Z,92.67
2022-12-29T17:07:47.686Z,91.33
2022-12-29T17:10:16.433Z,91.41
2022-12-29T17:12:46.914Z,93.38
2022-12-29T17:15:33.263Z,91.14
2022-12-29T17:18:01.446Z,89.92
2022-12-29T17:20:31.631Z,89.90
2022-12-29T17:23:00.429Z,91.92
2022-12-29T17:25:38.644Z,96.08
2022-12-29T17:28:23.961Z,97.83
2022-12-29T17:31:03.075Z,97.10
2022-12-29T17:33:38.438Z,99.02
2022-12-29T17:36:06.035Z,97.94
2022-12-29T17:38:37.568Z,98.27
2022-12-29T17:41:05.017Z,97.63
2022-12-29T17:43:37.078Z,91.72
2022-12-29T17:46:08.202Z,91.04
2022-12-29T17:48:35.880Z,91.79
2022-12-29T17:51:03.505Z,95.34
2022-12-29T17:53:31.517Z,92.34
2022-12-29T17:55:59.072Z,94.87
2022-12-29T17:58:29.114Z,91.11
2022-12-29T18:01:02.576Z,88.65
2022-12-29T18:03:33.189Z,92.53
2022-12-29T18:06:00.763Z,91.83
2022-12-29T18:08:30.876Z,88.36
2022-12-29T18:10:58.687Z,89.09
2022-12-29T18:13:43.582Z,90.88
2022-12-29T18:16:14.827Z,91.27
2022-12-29T18:18:42.181Z,93.29
2022-12-29T18:21:27.998Z,91.83
2022-12-29T18:23:55.783Z,90.57
2022-12-29T18:26:31.654Z,91.64
2022-12-29T18:28:59.874Z,91.55
2022-12-29T18:31:33.952Z,92.51
2022-12-29T18:34:07.629Z,91.20
2022-12-29T18:36:34.995Z,92.25
2022-12-29T18:39:02.319Z,95.18
2022-12-29T18:41:30.294Z,94.14
2022-12-29T18:43:59.572Z,92.08
2022-12-29T18:46:27.338Z,89.76
2022-12-29T18:48:55.056Z,90.96
2022-12-29T18:51:24.727Z,94.48
2022-12-29T18:53:54.383Z,97.07
2022-12-29T18:56:23.725Z,97.05
2022-12-29T18:58:51.618Z,97.98
2022-12-29T19:01:26.077Z,96.83
2022-12-29T19:03:54.338Z,99.44
2022-12-29T19:06:22.253Z,97.67
2022-12-29T19:08:49.751Z,98.04
2022-12-29T19:11:17.972Z,97.41
2022-12-29T19:13:45.449Z,94.96
2022-12-29T19:16:21.752Z,100.00
2022-12-29T19:19:05.745Z,100.00
2022-12-29T19:21:35.034Z,100.00
2022-12-29T19:24:02.260Z,99.66
2022-12-29T19:26:36.976Z,95.59
2022-12-29T19:29:06.473Z,94.49
2022-12-29T19:31:34.411Z,96.05
2022-12-29T19:34:03.472Z,95.38
2022-12-29T19:36:31.087Z,95.81
2022-12-29T19:38:58.733Z,93.61
2022-12-29T19:41:26.079Z,96.88
2022-12-29T19:43:53.503Z,98.60
2022-12-29T19:46:21.298Z,98.84
2022-12-29T19:48:48.728Z,100.00
2022-12-29T19:51:17.331Z,100.00
2022-12-29T19:53:46.432Z,100.00
2022-12-29T19:56:14.877Z,100.00
2022-12-29T19:58:46.837Z,100.00
2022-12-29T20:01:23.785Z,100.00
2022-12-29T20:03:51.864Z,100.00
2022-12-29T20:06:20.537Z,100.00
2022-12-29T20:08:48.239Z,100.00
2022-12-29T20:11:18.511Z,100.00
2022-12-29T20:13:47.151Z,100.00
2022-12-29T20:16:19.902Z,100.00
2022-12-29T20:18:49.024Z,100.00
2022-12-29T20:21:21.041Z,99.95
2022-12-29T20:23:49.461Z,100.00
2022-12-29T20:26:22.065Z,100.00
2022-12-29T20:28:50.419Z,100.00
2022-12-29T20:31:31.880Z,100.00
2022-12-29T20:33:59.655Z,100.00
2022-12-29T20:36:31.958Z,100.00
2022-12-29T20:39:03.955Z,100.00
2022-12-29T20:41:31.325Z,100.00
2022-12-29T20:44:01.043Z,100.00
2022-12-29T20:46:35.356Z,100.00
2022-12-29T20:49:08.993Z,100.00
2022-12-29T20:52:04.587Z,100.00
2022-12-29T20:54:24.848Z,100.00
2022-12-29T20:56:52.641Z,100.00
2022-12-29T20:59:28.661Z,100.00
2022-12-29T21:01:57.983Z,100.00
2022-12-29T21:04:26.460Z,100.00
2022-12-29T21:06:54.468Z,100.00
2022-12-29T21:09:22.123Z,100.00
2022-12-29T21:11:49.496Z,100.00
2022-12-29T21:14:16.974Z,100.00
2022-12-29T21:16:44.398Z,100.00
2022-12-29T21:19:11.792Z,100.00
2022-12-29T21:21:39.170Z,100.00
2022-12-29T21:24:07.828Z,100.00
2022-12-29T21:26:35.813Z,100.00
2022-12-29T21:29:03.909Z,100.00
2022-12-29T21:31:37.101Z,100.00
2022-12-29T21:34:06.217Z,100.00
2022-12-29T21:36:34.425Z,100.00
2022-12-29T21:39:03.711Z,100.00
2022-12-29T21:41:32.061Z,100.00
2022-12-29T21:44:18.709Z,100.00
2022-12-29T21:46:47.874Z,100.00
2022-12-29T21:49:16.418Z,100.00
2022-12-29T21:51:57.660Z,100.00
2022-12-29T21:54:46.779Z,100.00
2022-12-29T21:57:37.370Z,100.00
2022-12-29T22:00:27.222Z,100.00
2022-12-29T22:03:22.077Z,100.00
2022-12-29T22:06:11.000Z,100.00
2022-12-29T22:08:57.932Z,100.00
2022-12-29T22:11:43.989Z,100.00
2022-12-29T22:14:11.456Z,100.00
2022-12-29T22:16:38.797Z,100.00
2022-12-29T22:19:08.016Z,100.00
2022-12-29T22:21:35.468Z,100.00
2022-12-29T22:24:03.002Z,100.00
2022-12-29T22:26:30.239Z,100.00
2022-12-29T22:28:57.826Z,100.00
2022-12-29T22:31:30.362Z,100.00
2022-12-29T22:34:01.240Z,100.00
2022-12-29T22:36:28.917Z,100.00
2022-12-29T22:38:56.241Z,100.00
2022-12-29T22:41:24.618Z,100.00
2022-12-29T22:43:51.981Z,100.00
2022-12-29T22:46:19.850Z,100.00
2022-12-29T22:48:47.527Z,100.00
2022-12-29T22:51:14.790Z,100.00
2022-12-29T22:53:42.183Z,100.00
2022-12-29T22:56:12.776Z,100.00
2022-12-29T22:58:44.944Z,100.00
2022-12-29T23:01:15.986Z,100.00
2022-12-29T23:03:44.365Z,100.00
2022-12-29T23:06:14.166Z,100.00
2022-12-29T23:08:42.074Z,100.00
2022-12-29T23:11:12.459Z,100.00
2022-12-29T23:13:41.753Z,100.00
2022-12-29T23:16:09.223Z,100.00
2022-12-29T23:18:37.487Z,100.00
2022-12-29T23:21:05.125Z,100.00
2022-12-29T23:23:50.960Z,100.00
2022-12-29T23:26:24.326Z,100.00
2022-12-29T23:28:56.283Z,100.00
2022-12-29T23:31:28.540Z,100.00
2022-12-29T23:33:56.473Z,100.00
2022-12-29T23:36:24.113Z,100.00
2022-12-29T23:38:51.642Z,100.00
2022-12-29T23:41:18.889Z,100.00
2022-12-29T23:43:46.829Z,100.00
2022-12-29T23:46:24.548Z,100.00
2022-12-29T23:48:51.924Z,100.00
2022-12-29T23:51:19.738Z,100.00
2022-12-29T23:53:47.856Z,100.00
2022-12-29T23:56:19.078Z,100.00
2022-12-29T23:58:46.674Z,100.00
